Aviation Digital Data Service (ADDS)

Output produced by METARs form (1935 UTC 25 March 2017)
found at http://www.aviationweather.gov/adds/metars/
 
LBBG 251930Z 12005KT 9999 BKN015 OVC030 08/06 Q1020 NOSIG
TAF LBBG 251700Z 2518/2618 08008KT 9999 SCT015 BKN025 
     TEMPO 2600/2605 VRB04KT 3000 BR BKN015 
     BECMG 2605/2607 27012KT 
     TEMPO 2610/2616 6000 RA SCT010 OVC020
       
LBGO 251930Z AUTO 00000KT 9999 OVC035/// 10/08 Q1019
TAF LBGO 251700Z 2518/2618 VRB04KT 9999 BKN030 
     BECMG 2603/2605 30014KT SCT015 OVC025 
     BECMG 2608/2610 30024KT 
     PROB30 
     TEMPO 2616/2618 5000 RA BKN020 OVC040
       
LBPD 251930Z AUTO 10008KT 9999 NCD 10/08 Q1018 NOSIG
TAF LBPD 251700Z 2518/2618 11010KT CAVOK 
     BECMG 2600/2602 SCT040 BKN080 
     BECMG 2608/2610 28012KT 
     TEMPO 2610/2618 5000 RA BKN020 OVC040
       
LBSF 251930Z 30004KT 8000 NSC 11/09 Q1019 NOSIG
TAF LBSF 251700Z 2518/2618 33012KT 9999 SCT040 BKN070 
     TEMPO 2609/2618 5000 RA BKN020 OVC040
       
LBWN 251930Z 00000KT 9999 OVC013 08/04 Q1019 NOSIG
TAF LBWN 251700Z 2518/2618 VRB04KT 9999 SCT010 OVC015 
     TEMPO 2600/2605 5000 BR BKN010 
     BECMG 2605/2607 30016KT 
     TEMPO 2608/2616 33016G26KT 
     TEMPO 2616/2618 RA OVC010
       
LBBG 251930Z 12005KT 9999 BKN015 OVC030 08/06 Q1020 NOSIG
TAF LBBG 251700Z 2518/2618 08008KT 9999 SCT015 BKN025 
     TEMPO 2600/2605 VRB04KT 3000 BR BKN015 
     BECMG 2605/2607 27012KT 
     TEMPO 2610/2616 6000 RA SCT010 OVC020
       
LBGO 251930Z AUTO 00000KT 9999 OVC035/// 10/08 Q1019
TAF LBGO 251700Z 2518/2618 VRB04KT 9999 BKN030 
     BECMG 2603/2605 30014KT SCT015 OVC025 
     BECMG 2608/2610 30024KT 
     PROB30 
     TEMPO 2616/2618 5000 RA BKN020 OVC040
       
LBPD 251930Z AUTO 10008KT 9999 NCD 10/08 Q1018 NOSIG
TAF LBPD 251700Z 2518/2618 11010KT CAVOK 
     BECMG 2600/2602 SCT040 BKN080 
     BECMG 2608/2610 28012KT 
     TEMPO 2610/2618 5000 RA BKN020 OVC040
       
LBSF 251930Z 30004KT 8000 NSC 11/09 Q1019 NOSIG
TAF LBSF 251700Z 2518/2618 33012KT 9999 SCT040 BKN070 
     TEMPO 2609/2618 5000 RA BKN020 OVC040
       
LBWN 251930Z 00000KT 9999 OVC013 08/04 Q1019 NOSIG
TAF LBWN 251700Z 2518/2618 VRB04KT 9999 SCT010 OVC015 
     TEMPO 2600/2605 5000 BR BKN010 
     BECMG 2605/2607 30016KT 
     TEMPO 2608/2616 33016G26KT 
     TEMPO 2616/2618 RA OVC010